James T. Quigg — WDA4612 — position and weather

sailwx.info

Track history (hours):
 
Tides and Currents Weather Stations Pressure Air Temp Water Temp Dewpoint Dewpoint Depression Visibility Wind Speed Wind Dir Waves Ship Positions

James T. Quigg

Owner: Harley Marine Services, INC, Seattle, WA. More information available from US FCC via Universal Licensing System and Coast Guard Vessel Documentation Center.

Last reported at 2018-Jun-22 08:58 UTC. Time now 2018-Jun-22 09:24 UTC.
Position N 47°34' W 122°21'.

Length 30 m; draft 4 m.

Type: Tug. MMSI: 365762734.

Date/timePositionNaut miles runAvg speedWind from/ knotsBaromVisibWave heightAir tempDewpointWater temp
2018-Jun-22 08:58N 47°34' W 122°21'0 0.0
2018-Jun-22 08:28N 47°34' W 122°21'0 0.0
2018-Jun-22 07:58N 47°34' W 122°21'0 0.0
2018-Jun-22 07:28N 47°34' W 122°21'0 0.0
2018-Jun-22 06:58N 47°34' W 122°21'0 0.0
2018-Jun-22 06:28N 47°34' W 122°21'0 0.0
2018-Jun-22 05:58N 47°34' W 122°21'0 0.0
2018-Jun-22 05:28N 47°34' W 122°21'0 0.0
2018-Jun-22 04:58N 47°34' W 122°21'0 0.0
2018-Jun-22 04:28N 47°34' W 122°21'0 0.0
2018-Jun-22 03:58N 47°34' W 122°21'0 0.0
2018-Jun-22 03:28N 47°34' W 122°21'0 0.0
2018-Jun-22 02:58N 47°34' W 122°21'0 0.0
2018-Jun-22 02:28N 47°34' W 122°21'0 0.0
2018-Jun-22 01:58N 47°34' W 122°21'0 0.0
2018-Jun-22 01:28N 47°34' W 122°21'0 0.0
2018-Jun-22 00:58N 47°34' W 122°21'0 0.0
2018-Jun-22 00:29N 47°34' W 122°21'1 1.7
2018-Jun-21 23:57N 47°35' W 122°21'3 5.9
2018-Jun-21 23:30N 47°37' W 122°24'2 3.9
2018-Jun-21 23:00N 47°38' W 122°26'3 6.0
2018-Jun-21 22:30N 47°41' W 122°26'3 6.6
2018-Jun-21 22:00N 47°44' W 122°25'3 5.0
2018-Jun-21 21:29N 47°47' W 122°24'0 0.1
2018-Jun-21 20:59N 47°47' W 122°24'0 0.0
2018-Jun-21 20:29N 47°47' W 122°24'0 0.0
2018-Jun-21 19:59N 47°47' W 122°24'0 0.0
2018-Jun-21 19:29N 47°47' W 122°24'0 0.0
2018-Jun-21 18:59N 47°47' W 122°24'0 0.0
2018-Jun-21 18:29N 47°47' W 122°24'0 0.0
2018-Jun-21 17:59N 47°47' W 122°24'0 0.0
2018-Jun-21 17:29N 47°47' W 122°24'0 0.0
2018-Jun-21 16:59N 47°47' W 122°24'0 0.0
2018-Jun-21 16:29N 47°47' W 122°24'0 0.0
2018-Jun-21 15:59N 47°47' W 122°24'0 0.0
2018-Jun-21 15:29N 47°47' W 122°24'0 0.0
2018-Jun-21 14:59N 47°47' W 122°24'0 0.0
2018-Jun-21 14:29N 47°47' W 122°24'0 0.0
2018-Jun-21 13:59N 47°47' W 122°24'0 0.0
2018-Jun-21 13:29N 47°47' W 122°24'0 0.0
2018-Jun-21 12:59N 47°47' W 122°24'0 0.0
2018-Jun-21 12:26N 47°47' W 122°24'0 0.0
2018-Jun-21 11:59N 47°47' W 122°24'0 0.0
2018-Jun-21 11:29N 47°47' W 122°24'0 0.0
2018-Jun-21 10:59N 47°47' W 122°24'0 0.0
2018-Jun-21 10:29N 47°47' W 122°24'0 0.0
2018-Jun-21 09:59N 47°47' W 122°24'0 0.0
2018-Jun-21 09:29N 47°47' W 122°24'0 0.0
2018-Jun-21 08:59N 47°47' W 122°24'0 0.0
2018-Jun-21 08:29N 47°47' W 122°24'0 0.0
2018-Jun-21 07:56N 47°47' W 122°24'0 0.0
2018-Jun-21 07:29N 47°47' W 122°24'0 0.0
2018-Jun-21 06:59N 47°47' W 122°24'0 0.0
2018-Jun-21 06:29N 47°47' W 122°24'0 0.0
2018-Jun-21 05:59N 47°47' W 122°24'0 0.0
2018-Jun-21 05:29N 47°47' W 122°24'0 0.0
2018-Jun-21 04:59N 47°47' W 122°24'0 0.1
2018-Jun-21 04:30N 47°47' W 122°24'1 1.6
2018-Jun-21 04:00N 47°47' W 122°25'2 3.3
2018-Jun-21 03:30N 47°49' W 122°26'3 5.9
2018-Jun-21 03:00N 47°51' W 122°28'4 6.9
2018-Jun-21 02:30N 47°55' W 122°30'30 5.1
2018-Jun-20 20:38N 48°23' W 122°46'2 7.6
2018-Jun-20 20:19N 48°25' W 122°45'2 7.7
2018-Jun-20 20:00N 48°28' W 122°45'3 7.0
2018-Jun-20 19:30N 48°31' W 122°42'3 5.9
2018-Jun-20 19:00N 48°31' W 122°38'2 4.9
2018-Jun-20 18:30N 48°31' W 122°35'1 1.4
2018-Jun-20 17:57N 48°30' W 122°34'0 0.0
2018-Jun-20 17:27N 48°30' W 122°34'0 0.0
2018-Jun-20 16:57N 48°30' W 122°34'0 0.0
2018-Jun-20 16:27N 48°30' W 122°34'0 0.0
2018-Jun-20 15:57N 48°30' W 122°34'0 0.0
2018-Jun-20 15:27N 48°30' W 122°34'0 0.0
2018-Jun-20 14:57N 48°30' W 122°34'0 0.0
2018-Jun-20 14:27N 48°30' W 122°34'0 0.0
2018-Jun-20 13:57N 48°30' W 122°34'0 0.0
2018-Jun-20 13:27N 48°30' W 122°34'0 0.0
2018-Jun-20 12:57N 48°30' W 122°34'0 0.0
2018-Jun-20 12:21N 48°30' W 122°34'0 0.0
2018-Jun-20 11:57N 48°30' W 122°34'0 0.0
2018-Jun-20 11:27N 48°30' W 122°34'0 0.0
2018-Jun-20 10:51N 48°30' W 122°34'0 0.0
2018-Jun-20 10:27N 48°30' W 122°34'0 0.0
2018-Jun-20 09:57N 48°30' W 122°34'0 0.0
2018-Jun-20 09:27N 48°30' W 122°34'0 0.0
2018-Jun-20 08:57N 48°30' W 122°34'0 0.0
2018-Jun-20 08:27N 48°30' W 122°34'0 0.0
2018-Jun-20 07:57N 48°30' W 122°34'0 0.0
2018-Jun-20 07:21N 48°30' W 122°34'0 0.0
2018-Jun-20 06:57N 48°30' W 122°34'0 0.0
2018-Jun-20 06:27N 48°30' W 122°34'0 0.0
2018-Jun-20 05:57N 48°30' W 122°34'0 0.0
2018-Jun-20 05:27N 48°30' W 122°34'0 0.0
2018-Jun-20 04:57N 48°30' W 122°34'0 0.0
2018-Jun-20 04:27N 48°30' W 122°34'0 0.0
2018-Jun-20 04:00N 48°30' W 122°34'1 1.1
2018-Jun-20 03:31N 48°31' W 122°35'0 0.3
2018-Jun-20 03:01N 48°31' W 122°35'0 0.9
2018-Jun-20 02:31N 48°31' W 122°35'4 7.2
2018-Jun-20 02:01N 48°32' W 122°40'2 3.7
2018-Jun-20 01:30N 48°33' W 122°40'1 2.0
2018-Jun-20 01:00N 48°33' W 122°41'1 3.1
2018-Jun-20 00:31N 48°31' W 122°41'2 3.4
2018-Jun-20 00:01N 48°30' W 122°43'2 4.1
2018-Jun-19 23:30N 48°28' W 122°44'2 3.3
2018-Jun-19 22:59N 48°26' W 122°44'2 3.7
2018-Jun-19 22:30N 48°25' W 122°44'2 3.8
2018-Jun-19 21:55N 48°22' W 122°44'2 3.6
2018-Jun-19 21:28N 48°21' W 122°45'15 6.4
2018-Jun-19 19:10N 48°07' W 122°39'3 9.2
2018-Jun-19 18:52N 48°04' W 122°38'4 9.3
2018-Jun-19 18:29N 48°01' W 122°36'4 9.1
2018-Jun-19 18:00N 47°57' W 122°32'4 7.6
2018-Jun-19 17:30N 47°54' W 122°28'4 7.7
2018-Jun-19 17:01N 47°51' W 122°27'4 7.7
2018-Jun-19 16:31N 47°47' W 122°26'4 7.5
2018-Jun-19 16:00N 47°43' W 122°26'4 7.1
2018-Jun-19 15:31N 47°40' W 122°27'4 7.1
2018-Jun-19 15:00N 47°37' W 122°24'3 5.1
2018-Jun-19 14:30N 47°35' W 122°21'0 0.1
2018-Jun-19 14:00N 47°35' W 122°21'1 1.6
2018-Jun-19 13:28N 47°34' W 122°21'0 0.0
2018-Jun-19 12:58N 47°34' W 122°21'0 0.0
2018-Jun-19 12:28N 47°34' W 122°21'0 0.0
2018-Jun-19 11:58N 47°34' W 122°21'0 0.0
2018-Jun-19 11:28N 47°34' W 122°21'0 0.0
2018-Jun-19 10:58N 47°34' W 122°21'0 0.0
2018-Jun-19 10:28N 47°34' W 122°21'0 0.0
2018-Jun-19 09:58N 47°34' W 122°21'0 0.0
2018-Jun-19 09:28N 47°34' W 122°21'0 0.0
2018-Jun-19 08:58N 47°34' W 122°21'0 0.0
2018-Jun-19 08:28N 47°34' W 122°21'0 0.0
2018-Jun-19 07:58N 47°34' W 122°21'0 0.0
2018-Jun-19 07:28N 47°34' W 122°21'0 0.0
2018-Jun-19 06:58N 47°34' W 122°21'0 0.0
2018-Jun-19 06:28N 47°34' W 122°21'0 0.0
2018-Jun-19 05:58N 47°34' W 122°21'0 0.0
2018-Jun-19 05:28N 47°34' W 122°21'0 0.0
2018-Jun-19 04:58N 47°34' W 122°21'0 0.0
2018-Jun-19 04:31N 47°34' W 122°21'0 0.0
2018-Jun-19 04:00N 47°34' W 122°21'0 0.0
2018-Jun-19 03:28N 47°34' W 122°21'0 0.0
2018-Jun-19 02:58N 47°34' W 122°21'0 0.0
2018-Jun-19 02:30N 47°34' W 122°21'0 0.0
2018-Jun-19 02:00N 47°34' W 122°21'0 0.0
2018-Jun-19 01:27N 47°34' W 122°21'0 0.0
2018-Jun-19 01:00N 47°34' W 122°21'0 0.0
2018-Jun-19 00:28N 47°34' W 122°21'0 0.0
2018-Jun-18 23:55N 47°34' W 122°21'0 0.0
2018-Jun-18 23:24N 47°34' W 122°21'0 0.0
2018-Jun-18 23:01N 47°34' W 122°21'0 0.0
2018-Jun-18 22:30N 47°34' W 122°21'0 0.0
2018-Jun-18 22:01N 47°34' W 122°21'0 0.0
2018-Jun-18 21:27N 47°34' W 122°21'0 0.0
2018-Jun-18 20:58N 47°34' W 122°21'0 0.0
2018-Jun-18 20:27N 47°34' W 122°21'0 0.0
2018-Jun-18 20:01N 47°34' W 122°21'0 0.0
2018-Jun-18 19:31N 47°34' W 122°21'0 0.0
2018-Jun-18 19:01N 47°34' W 122°21'0 0.0
2018-Jun-18 18:28N 47°34' W 122°21'0 0.0
2018-Jun-18 17:58N 47°34' W 122°21'0 0.0
2018-Jun-18 17:31N 47°34' W 122°21'0 0.0
2018-Jun-18 16:58N 47°34' W 122°21'0 0.0
2018-Jun-18 16:25N 47°34' W 122°21'0 0.0
2018-Jun-18 15:57N 47°34' W 122°21'0 0.0
2018-Jun-18 15:28N 47°34' W 122°21'0 0.0
2018-Jun-18 15:01N 47°34' W 122°21'0 0.0
2018-Jun-18 14:31N 47°34' W 122°21'0 0.0
2018-Jun-18 13:57N 47°34' W 122°21'0 0.0
2018-Jun-18 13:28N 47°34' W 122°21'0 0.0
2018-Jun-18 13:00N 47°34' W 122°21'0 0.0
2018-Jun-18 12:30N 47°34' W 122°21'0 0.0
2018-Jun-18 12:00N 47°34' W 122°21'0 0.0
2018-Jun-18 11:30N 47°34' W 122°21'0 0.0
2018-Jun-18 11:01N 47°34' W 122°21'0 0.0
2018-Jun-18 10:31N 47°34' W 122°21'0 0.0
2018-Jun-18 10:00N 47°34' W 122°21'0 0.0
2018-Jun-18 09:31N 47°34' W 122°21'0 0.0
2018-Jun-18 09:01N 47°34' W 122°21'0 0.0
2018-Jun-18 08:30N 47°34' W 122°21'0 0.0
2018-Jun-18 08:00N 47°34' W 122°21'0 0.0
2018-Jun-18 07:30N 47°34' W 122°21'0 0.0
2018-Jun-18 07:00N 47°34' W 122°21'0 0.0
2018-Jun-18 06:31N 47°34' W 122°21'0 0.0
2018-Jun-18 06:00N 47°34' W 122°21'0 0.0
2018-Jun-18 05:30N 47°34' W 122°21'0 0.0
2018-Jun-18 05:00N 47°34' W 122°21'0 0.0
2018-Jun-18 04:30N 47°34' W 122°21'0 0.0
2018-Jun-18 04:00N 47°34' W 122°21'0 0.0
2018-Jun-18 03:30N 47°34' W 122°21'0 0.0
2018-Jun-18 02:57N 47°34' W 122°21'0 0.0
2018-Jun-18 02:30N 47°34' W 122°21'0 0.0
2018-Jun-18 02:00N 47°34' W 122°21'0 0.0
2018-Jun-18 01:30N 47°34' W 122°21'0 0.0
2018-Jun-18 01:00N 47°34' W 122°21'0 0.0
2018-Jun-18 00:31N 47°34' W 122°21'0 0.0
2018-Jun-18 00:00N 47°34' W 122°21'0 0.1
2018-Jun-17 23:30N 47°34' W 122°21'0 0.0
2018-Jun-17 23:00N 47°34' W 122°21'0 0.0
2018-Jun-17 22:30N 47°34' W 122°21'0 0.0
2018-Jun-17 22:00N 47°34' W 122°21'0 0.0
2018-Jun-17 21:30N 47°34' W 122°21'0 0.0
2018-Jun-17 21:00N 47°34' W 122°21'0 0.0
2018-Jun-17 20:30N 47°34' W 122°21'0 0.0
2018-Jun-17 20:00N 47°34' W 122°21'0 0.0
2018-Jun-17 19:30N 47°34' W 122°21'0 0.0
2018-Jun-17 19:00N 47°34' W 122°21'0 0.0
2018-Jun-17 18:27N 47°34' W 122°21'0 0.0
2018-Jun-17 18:00N 47°34' W 122°21'0 0.0
2018-Jun-17 17:30N 47°34' W 122°21'0 0.0
2018-Jun-17 17:00N 47°34' W 122°21'0 0.0
2018-Jun-17 16:30N 47°34' W 122°21'0 0.0
2018-Jun-17 16:00N 47°34' W 122°21'0 0.0
2018-Jun-17 15:27N 47°34' W 122°21'0 0.0
2018-Jun-17 15:00N 47°34' W 122°21'0 0.0
2018-Jun-17 14:30N 47°34' W 122°21'0 0.0
2018-Jun-17 14:00N 47°34' W 122°21'0 0.0
2018-Jun-17 13:30N 47°34' W 122°21'0 0.0
2018-Jun-17 13:00N 47°34' W 122°21'0 0.0
2018-Jun-17 12:30N 47°34' W 122°21'0 0.0
2018-Jun-17 12:00N 47°34' W 122°21'0 0.0
2018-Jun-17 11:30N 47°34' W 122°21'0 0.0
2018-Jun-17 11:00N 47°34' W 122°21'0 0.0
2018-Jun-17 10:30N 47°34' W 122°21'0 0.0
2018-Jun-17 10:00N 47°34' W 122°21'0 0.0
2018-Jun-17 09:30N 47°34' W 122°21'0 0.0
2018-Jun-17 09:00N 47°34' W 122°21'0 0.0
2018-Jun-17 08:30N 47°34' W 122°21'0 0.0
2018-Jun-17 08:00N 47°34' W 122°21'0 0.0
2018-Jun-17 07:30N 47°34' W 122°21'0 0.0
2018-Jun-17 07:00N 47°34' W 122°21'0 0.0
2018-Jun-17 06:30N 47°34' W 122°21'0 0.0
2018-Jun-17 06:00N 47°34' W 122°21'0 0.0
2018-Jun-17 05:30N 47°34' W 122°21'0 0.0
2018-Jun-17 05:00N 47°34' W 122°21'0 0.0
2018-Jun-17 04:30N 47°34' W 122°21'0 0.0
2018-Jun-17 04:00N 47°34' W 122°21'0 0.0
2018-Jun-17 03:24N 47°34' W 122°21'0 0.0
2018-Jun-17 03:00N 47°34' W 122°21'0 0.0
2018-Jun-17 02:30N 47°34' W 122°21'0 0.0
2018-Jun-17 02:00N 47°34' W 122°21'0 0.0
2018-Jun-17 01:30N 47°34' W 122°21'0 0.0
2018-Jun-17 01:00N 47°34' W 122°21'0 0.0
2018-Jun-17 00:30N 47°34' W 122°21'0 0.0
2018-Jun-16 23:57N 47°34' W 122°21'0 0.4
2018-Jun-16 23:30N 47°35' W 122°21'0 0.5
2018-Jun-16 22:59N 47°35' W 122°21'0 0.1
2018-Jun-16 22:29N 47°35' W 122°21'0 0.0
2018-Jun-16 21:59N 47°35' W 122°21'0 0.0
2018-Jun-16 21:29N 47°35' W 122°21'0 0.0
2018-Jun-16 20:59N 47°35' W 122°21'0 0.0
2018-Jun-16 20:29N 47°35' W 122°21'0 0.0
2018-Jun-16 19:59N 47°35' W 122°21'0 0.0
2018-Jun-16 19:17N 47°35' W 122°21'0 0.0
2018-Jun-16 18:59N 47°35' W 122°21'0 0.9
2018-Jun-16 18:28N 47°35' W 122°21'0 0.9
2018-Jun-16 17:59N 47°36' W 122°21'3 5.6
2018-Jun-16 17:30N 47°37' W 122°24'3 6.7
2018-Jun-16 17:01N 47°40' W 122°27'4 7.2
2018-Jun-16 16:30N 47°44' W 122°25'3 6.7
2018-Jun-16 16:00N 47°47' W 122°24'0 0.1
2018-Jun-16 15:29N 47°47' W 122°24'0 0.1
2018-Jun-16 14:59N 47°47' W 122°24'0 0.0
2018-Jun-16 14:29N 47°47' W 122°24'0 0.0
2018-Jun-16 13:56N 47°47' W 122°24'0 0.0
2018-Jun-16 13:29N 47°47' W 122°24'0 0.0
2018-Jun-16 12:59N 47°47' W 122°24'0 0.1
2018-Jun-16 12:29N 47°47' W 122°24'0 0.0
2018-Jun-16 11:59N 47°47' W 122°24'0 0.0
2018-Jun-16 11:29N 47°47' W 122°24'0 0.0
2018-Jun-16 10:59N 47°47' W 122°24'0 0.0
2018-Jun-16 10:29N 47°47' W 122°24'0 0.0
2018-Jun-16 09:59N 47°47' W 122°24'0 0.0
2018-Jun-16 09:29N 47°47' W 122°24'0 0.0
2018-Jun-16 08:59N 47°47' W 122°24'0 0.0
2018-Jun-16 08:29N 47°47' W 122°24'0 0.2
2018-Jun-16 07:59N 47°47' W 122°24'0 0.0
2018-Jun-16 07:30N 47°47' W 122°24'0 0.0
2018-Jun-16 07:00N 47°47' W 122°24'0 0.0
2018-Jun-16 06:30N 47°47' W 122°24'0 0.0
2018-Jun-16 06:00N 47°47' W 122°24'0 0.0
2018-Jun-16 05:30N 47°47' W 122°24'0 0.0
2018-Jun-16 05:00N 47°47' W 122°24'0 0.0
2018-Jun-16 04:30N 47°47' W 122°24'0 0.0
2018-Jun-16 04:00N 47°47' W 122°24'0 0.0
2018-Jun-16 03:30N 47°47' W 122°24'0 0.0
2018-Jun-16 03:00N 47°47' W 122°24'0 0.0
2018-Jun-16 02:30N 47°47' W 122°24'0 0.8
2018-Jun-16 02:00N 47°47' W 122°24'3 6.5
2018-Jun-16 01:30N 47°43' W 122°26'3 6.8
2018-Jun-16 01:00N 47°40' W 122°27'4 6.9
2018-Jun-16 00:30N 47°37' W 122°24'3 5.5
2018-Jun-16 00:00N 47°35' W 122°21'0 0.3
2018-Jun-15 23:29N 47°35' W 122°21'0 0.3
2018-Jun-15 23:00N 47°35' W 122°21'1 0.7
2018-Jun-15 21:54N 47°34' W 122°21'0 0.0
2018-Jun-15 21:30N 47°34' W 122°21'0 0.0
2018-Jun-15 21:00N 47°34' W 122°21'0 0.0
2018-Jun-15 20:30N 47°34' W 122°21'0 0.0
2018-Jun-15 20:00N 47°34' W 122°21'0 0.0
2018-Jun-15 19:30N 47°34' W 122°21'1 1.7
2018-Jun-15 18:58N 47°35' W 122°21'0 0.0
2018-Jun-15 18:30N 47°35' W 122°21'1 1.7
2018-Jun-15 17:58N 47°34' W 122°21'0 0.0
2018-Jun-15 17:25N 47°34' W 122°21'0 0.0
2018-Jun-15 16:58N 47°34' W 122°21'0 0.0
2018-Jun-15 16:28N 47°34' W 122°21'0 0.0
2018-Jun-15 15:58N 47°34' W 122°21'1 2.0
2018-Jun-15 15:30N 47°35' W 122°21'0 0.0
2018-Jun-15 15:00N 47°35' W 122°21'1 1.0
2018-Jun-15 14:30N 47°36' W 122°21'1 2.7
2018-Jun-15 14:00N 47°36' W 122°23'3 6.8
2018-Jun-15 13:30N 47°38' W 122°27'3 6.4
2018-Jun-15 13:00N 47°42' W 122°28'3 6.9
2018-Jun-15 12:30N 47°45' W 122°27'3 6.8
2018-Jun-15 12:00N 47°48' W 122°28'3 6.7
2018-Jun-15 11:30N 47°52' W 122°29'3 6.9
2018-Jun-15 11:00N 47°55' W 122°30'29 6.7
2018-Jun-15 06:40N 48°22' W 122°46'2 7.8
2018-Jun-15 06:28N 48°24' W 122°45'4 7.8
2018-Jun-15 05:59N 48°27' W 122°44'4 7.8
2018-Jun-15 05:30N 48°31' W 122°42'4 8.1
2018-Jun-15 05:00N 48°32' W 122°36'1 2.7
2018-Jun-15 04:30N 48°31' W 122°34'0 0.2
2018-Jun-15 03:57N 48°30' W 122°34'0 0.0
2018-Jun-15 03:27N 48°30' W 122°34'0 0.0
2018-Jun-15 02:57N 48°30' W 122°34'0 0.0
2018-Jun-15 02:27N 48°30' W 122°34'0 0.0
2018-Jun-15 01:57N 48°30' W 122°34'0 0.0
2018-Jun-15 01:27N 48°30' W 122°34'0 0.0
2018-Jun-15 00:57N 48°30' W 122°34'0 0.0
2018-Jun-15 00:27N 48°30' W 122°34'0 0.0
2018-Jun-14 23:57N 48°30' W 122°34'0 0.0
2018-Jun-14 23:27N 48°30' W 122°34'0 0.0
2018-Jun-14 22:58N 48°30' W 122°34'0 0.0
2018-Jun-14 22:27N 48°30' W 122°34'0 0.0
2018-Jun-14 21:57N 48°30' W 122°34'0 0.0
2018-Jun-14 21:27N 48°30' W 122°34'0 0.0
2018-Jun-14 20:57N 48°30' W 122°34'0 0.0
2018-Jun-14 20:27N 48°30' W 122°34'0 0.0
2018-Jun-14 19:51N 48°30' W 122°34'0 0.0
2018-Jun-14 19:27N 48°30' W 122°34'0 0.0
2018-Jun-14 18:57N 48°30' W 122°34'0 0.0
2018-Jun-14 18:27N 48°30' W 122°34'0 0.0
2018-Jun-14 17:57N 48°30' W 122°34'0 0.0
2018-Jun-14 17:27N 48°30' W 122°34'0 0.0
2018-Jun-14 16:57N 48°30' W 122°34'0 0.0
2018-Jun-14 16:30N 48°30' W 122°34'1 1.0
2018-Jun-14 16:00N 48°31' W 122°34'2 4.8
2018-Jun-14 15:30N 48°31' W 122°38'2 5.0
2018-Jun-14 15:00N 48°31' W 122°42'2 4.2
2018-Jun-14 14:30N 48°29' W 122°44'3 5.7
2018-Jun-14 13:59N 48°27' W 122°46'3 6.5
2018-Jun-14 13:29N 48°24' W 122°48'3 6.6
2018-Jun-14 13:00N 48°22' W 122°52'4 7.7
2018-Jun-14 12:28N 48°20' W 122°57'3 7.4
2018-Jun-14 12:00N 48°18' W 123°02'4 7.1
2018-Jun-14 11:29N 48°16' W 123°06'4 7.1
2018-Jun-14 10:53N 48°14' W 123°12'3 7.5
2018-Jun-14 10:28N 48°12' W 123°16'4 8.2
2018-Jun-14 10:00N 48°10' W 123°20'4 7.4
2018-Jun-14 09:30N 48°08' W 123°25'1 2.9
2018-Jun-14 09:00N 48°08' W 123°28'0 0.1
2018-Jun-14 08:30N 48°08' W 123°28'0 0.0
2018-Jun-14 07:54N 48°08' W 123°28'0 0.0
2018-Jun-14 07:30N 48°08' W 123°28'0 0.0
2018-Jun-13 14:18N 48°08' W 123°28'0 0.0
2018-Jun-13 13:45N 48°08' W 123°28'0 0.0
2018-Jun-13 13:24N 48°08' W 123°28'0 0.0
2018-Jun-13 13:00N 48°08' W 123°28'0 0.0
2018-Jun-13 12:24N 48°08' W 123°28'0 0.0
2018-Jun-13 11:48N 48°08' W 123°28'0 0.0
2018-Jun-13 11:24N 48°08' W 123°28'0 0.0
2018-Jun-13 11:00N 48°08' W 123°28'0 0.0
2018-Jun-13 10:30N 48°08' W 123°28'0 0.0
2018-Jun-13 10:00N 48°08' W 123°28'0 0.0
2018-Jun-13 09:18N 48°08' W 123°28'0 0.0
2018-Jun-13 09:00N 48°08' W 123°28'0 0.0
2018-Jun-13 08:30N 48°08' W 123°28'0 0.0
2018-Jun-13 08:00N 48°08' W 123°28'0 0.0
2018-Jun-13 07:24N 48°08' W 123°28'0 0.0
2018-Jun-13 07:00N 48°08' W 123°28'0 0.0
2018-Jun-13 06:30N 48°08' W 123°28'0 0.0
2018-Jun-12 13:42N 48°08' W 123°28'0 0.0
2018-Jun-12 13:30N 48°08' W 123°28'0 0.0
2018-Jun-12 12:54N 48°08' W 123°28'0 0.0
2018-Jun-12 12:30N 48°08' W 123°28'0 0.0
2018-Jun-12 12:00N 48°08' W 123°28'0 0.0
2018-Jun-12 11:30N 48°08' W 123°28'0 0.0
2018-Jun-12 11:00N 48°08' W 123°28'0 0.0
2018-Jun-12 09:36N 48°08' W 123°28'0 0.0
2018-Jun-12 09:24N 48°08' W 123°28'  
Track history (hours):
 
Tides and Currents Weather Stations Pressure Air Temp Water Temp Dewpoint Dewpoint Depression Visibility Wind Speed Wind Dir Waves Ship Positions

James T. Quigg

Owner: Harley Marine Services, INC, Seattle, WA. More information available from US FCC via Universal Licensing System and Coast Guard Vessel Documentation Center.

Last reported at 2018-Jun-22 08:58 UTC. Time now 2018-Jun-22 09:24 UTC.
Position N 47°34' W 122°21'.

Length 30 m; draft 4 m.

Type: Tug. MMSI: 365762734.

Date/timePositionNaut miles runAvg speedWind from/ knotsBaromVisibWave heightAir tempDewpointWater temp
2018-Jun-22 08:58N 47°34' W 122°21'0 0.0
2018-Jun-22 08:28N 47°34' W 122°21'0 0.0
2018-Jun-22 07:58N 47°34' W 122°21'0 0.0
2018-Jun-22 07:28N 47°34' W 122°21'0 0.0
2018-Jun-22 06:58N 47°34' W 122°21'0 0.0
2018-Jun-22 06:28N 47°34' W 122°21'0 0.0
2018-Jun-22 05:58N 47°34' W 122°21'0 0.0
2018-Jun-22 05:28N 47°34' W 122°21'0 0.0
2018-Jun-22 04:58N 47°34' W 122°21'0 0.0
2018-Jun-22 04:28N 47°34' W 122°21'0 0.0
2018-Jun-22 03:58N 47°34' W 122°21'0 0.0
2018-Jun-22 03:28N 47°34' W 122°21'0 0.0
2018-Jun-22 02:58N 47°34' W 122°21'0 0.0
2018-Jun-22 02:28N 47°34' W 122°21'0 0.0
2018-Jun-22 01:58N 47°34' W 122°21'0 0.0
2018-Jun-22 01:28N 47°34' W 122°21'0 0.0
2018-Jun-22 00:58N 47°34' W 122°21'0 0.0
2018-Jun-22 00:29N 47°34' W 122°21'1 1.7
2018-Jun-21 23:57N 47°35' W 122°21'3 5.9
2018-Jun-21 23:30N 47°37' W 122°24'2 3.9
2018-Jun-21 23:00N 47°38' W 122°26'3 6.0
2018-Jun-21 22:30N 47°41' W 122°26'3 6.6
2018-Jun-21 22:00N 47°44' W 122°25'3 5.0
2018-Jun-21 21:29N 47°47' W 122°24'0 0.1
2018-Jun-21 20:59N 47°47' W 122°24'0 0.0
2018-Jun-21 20:29N 47°47' W 122°24'0 0.0
2018-Jun-21 19:59N 47°47' W 122°24'0 0.0
2018-Jun-21 19:29N 47°47' W 122°24'0 0.0
2018-Jun-21 18:59N 47°47' W 122°24'0 0.0
2018-Jun-21 18:29N 47°47' W 122°24'0 0.0
2018-Jun-21 17:59N 47°47' W 122°24'0 0.0
2018-Jun-21 17:29N 47°47' W 122°24'0 0.0
2018-Jun-21 16:59N 47°47' W 122°24'0 0.0
2018-Jun-21 16:29N 47°47' W 122°24'0 0.0
2018-Jun-21 15:59N 47°47' W 122°24'0 0.0
2018-Jun-21 15:29N 47°47' W 122°24'0 0.0
2018-Jun-21 14:59N 47°47' W 122°24'0 0.0
2018-Jun-21 14:29N 47°47' W 122°24'0 0.0
2018-Jun-21 13:59N 47°47' W 122°24'0 0.0
2018-Jun-21 13:29N 47°47' W 122°24'0 0.0
2018-Jun-21 12:59N 47°47' W 122°24'0 0.0
2018-Jun-21 12:26N 47°47' W 122°24'0 0.0
2018-Jun-21 11:59N 47°47' W 122°24'0 0.0
2018-Jun-21 11:29N 47°47' W 122°24'0 0.0
2018-Jun-21 10:59N 47°47' W 122°24'0 0.0
2018-Jun-21 10:29N 47°47' W 122°24'0 0.0
2018-Jun-21 09:59N 47°47' W 122°24'0 0.0
2018-Jun-21 09:29N 47°47' W 122°24'0 0.0
2018-Jun-21 08:59N 47°47' W 122°24'0 0.0
2018-Jun-21 08:29N 47°47' W 122°24'0 0.0
2018-Jun-21 07:56N 47°47' W 122°24'0 0.0
2018-Jun-21 07:29N 47°47' W 122°24'0 0.0
2018-Jun-21 06:59N 47°47' W 122°24'0 0.0
2018-Jun-21 06:29N 47°47' W 122°24'0 0.0
2018-Jun-21 05:59N 47°47' W 122°24'0 0.0
2018-Jun-21 05:29N 47°47' W 122°24'0 0.0
2018-Jun-21 04:59N 47°47' W 122°24'0 0.1
2018-Jun-21 04:30N 47°47' W 122°24'1 1.6
2018-Jun-21 04:00N 47°47' W 122°25'2 3.3
2018-Jun-21 03:30N 47°49' W 122°26'3 5.9
2018-Jun-21 03:00N 47°51' W 122°28'4 6.9
2018-Jun-21 02:30N 47°55' W 122°30'30 5.1
2018-Jun-20 20:38N 48°23' W 122°46'2 7.6
2018-Jun-20 20:19N 48°25' W 122°45'2 7.7
2018-Jun-20 20:00N 48°28' W 122°45'3 7.0
2018-Jun-20 19:30N 48°31' W 122°42'3 5.9
2018-Jun-20 19:00N 48°31' W 122°38'2 4.9
2018-Jun-20 18:30N 48°31' W 122°35'1 1.4
2018-Jun-20 17:57N 48°30' W 122°34'0 0.0
2018-Jun-20 17:27N 48°30' W 122°34'0 0.0
2018-Jun-20 16:57N 48°30' W 122°34'0 0.0
2018-Jun-20 16:27N 48°30' W 122°34'0 0.0
2018-Jun-20 15:57N 48°30' W 122°34'0 0.0
2018-Jun-20 15:27N 48°30' W 122°34'0 0.0
2018-Jun-20 14:57N 48°30' W 122°34'0 0.0
2018-Jun-20 14:27N 48°30' W 122°34'0 0.0
2018-Jun-20 13:57N 48°30' W 122°34'0 0.0
2018-Jun-20 13:27N 48°30' W 122°34'0 0.0
2018-Jun-20 12:57N 48°30' W 122°34'0 0.0
2018-Jun-20 12:21N 48°30' W 122°34'0 0.0
2018-Jun-20 11:57N 48°30' W 122°34'0 0.0
2018-Jun-20 11:27N 48°30' W 122°34'0 0.0
2018-Jun-20 10:51N 48°30' W 122°34'0 0.0
2018-Jun-20 10:27N 48°30' W 122°34'0 0.0
2018-Jun-20 09:57N 48°30' W 122°34'0 0.0
2018-Jun-20 09:27N 48°30' W 122°34'0 0.0
2018-Jun-20 08:57N 48°30' W 122°34'0 0.0
2018-Jun-20 08:27N 48°30' W 122°34'0 0.0
2018-Jun-20 07:57N 48°30' W 122°34'0 0.0
2018-Jun-20 07:21N 48°30' W 122°34'0 0.0
2018-Jun-20 06:57N 48°30' W 122°34'0 0.0
2018-Jun-20 06:27N 48°30' W 122°34'0 0.0
2018-Jun-20 05:57N 48°30' W 122°34'0 0.0
2018-Jun-20 05:27N 48°30' W 122°34'0 0.0
2018-Jun-20 04:57N 48°30' W 122°34'0 0.0
2018-Jun-20 04:27N 48°30' W 122°34'0 0.0
2018-Jun-20 04:00N 48°30' W 122°34'1 1.1
2018-Jun-20 03:31N 48°31' W 122°35'0 0.3
2018-Jun-20 03:01N 48°31' W 122°35'0 0.9
2018-Jun-20 02:31N 48°31' W 122°35'4 7.2
2018-Jun-20 02:01N 48°32' W 122°40'2 3.7
2018-Jun-20 01:30N 48°33' W 122°40'1 2.0
2018-Jun-20 01:00N 48°33' W 122°41'1 3.1
2018-Jun-20 00:31N 48°31' W 122°41'2 3.4
2018-Jun-20 00:01N 48°30' W 122°43'2 4.1
2018-Jun-19 23:30N 48°28' W 122°44'2 3.3
2018-Jun-19 22:59N 48°26' W 122°44'2 3.7
2018-Jun-19 22:30N 48°25' W 122°44'2 3.8
2018-Jun-19 21:55N 48°22' W 122°44'2 3.6
2018-Jun-19 21:28N 48°21' W 122°45'15 6.4
2018-Jun-19 19:10N 48°07' W 122°39'3 9.2
2018-Jun-19 18:52N 48°04' W 122°38'4 9.3
2018-Jun-19 18:29N 48°01' W 122°36'4 9.1
2018-Jun-19 18:00N 47°57' W 122°32'4 7.6
2018-Jun-19 17:30N 47°54' W 122°28'4 7.7
2018-Jun-19 17:01N 47°51' W 122°27'4 7.7
2018-Jun-19 16:31N 47°47' W 122°26'4 7.5
2018-Jun-19 16:00N 47°43' W 122°26'4 7.1
2018-Jun-19 15:31N 47°40' W 122°27'4 7.1
2018-Jun-19 15:00N 47°37' W 122°24'3 5.1
2018-Jun-19 14:30N 47°35' W 122°21'0 0.1
2018-Jun-19 14:00N 47°35' W 122°21'1 1.6
2018-Jun-19 13:28N 47°34' W 122°21'0 0.0
2018-Jun-19 12:58N 47°34' W 122°21'0 0.0
2018-Jun-19 12:28N 47°34' W 122°21'0 0.0
2018-Jun-19 11:58N 47°34' W 122°21'0 0.0
2018-Jun-19 11:28N 47°34' W 122°21'0 0.0
2018-Jun-19 10:58N 47°34' W 122°21'0 0.0
2018-Jun-19 10:28N 47°34' W 122°21'0 0.0
2018-Jun-19 09:58N 47°34' W 122°21'0 0.0
2018-Jun-19 09:28N 47°34' W 122°21'0 0.0
2018-Jun-19 08:58N 47°34' W 122°21'0 0.0
2018-Jun-19 08:28N 47°34' W 122°21'0 0.0
2018-Jun-19 07:58N 47°34' W 122°21'0 0.0
2018-Jun-19 07:28N 47°34' W 122°21'0 0.0
2018-Jun-19 06:58N 47°34' W 122°21'0 0.0
2018-Jun-19 06:28N 47°34' W 122°21'0 0.0
2018-Jun-19 05:58N 47°34' W 122°21'0 0.0
2018-Jun-19 05:28N 47°34' W 122°21'0 0.0
2018-Jun-19 04:58N 47°34' W 122°21'0 0.0
2018-Jun-19 04:31N 47°34' W 122°21'0 0.0
2018-Jun-19 04:00N 47°34' W 122°21'0 0.0
2018-Jun-19 03:28N 47°34' W 122°21'0 0.0
2018-Jun-19 02:58N 47°34' W 122°21'0 0.0
2018-Jun-19 02:30N 47°34' W 122°21'0 0.0
2018-Jun-19 02:00N 47°34' W 122°21'0 0.0
2018-Jun-19 01:27N 47°34' W 122°21'0 0.0
2018-Jun-19 01:00N 47°34' W 122°21'0 0.0
2018-Jun-19 00:28N 47°34' W 122°21'0 0.0
2018-Jun-18 23:55N 47°34' W 122°21'0 0.0
2018-Jun-18 23:24N 47°34' W 122°21'0 0.0
2018-Jun-18 23:01N 47°34' W 122°21'0 0.0
2018-Jun-18 22:30N 47°34' W 122°21'0 0.0
2018-Jun-18 22:01N 47°34' W 122°21'0 0.0
2018-Jun-18 21:27N 47°34' W 122°21'0 0.0
2018-Jun-18 20:58N 47°34' W 122°21'0 0.0
2018-Jun-18 20:27N 47°34' W 122°21'0 0.0
2018-Jun-18 20:01N 47°34' W 122°21'0 0.0
2018-Jun-18 19:31N 47°34' W 122°21'0 0.0
2018-Jun-18 19:01N 47°34' W 122°21'0 0.0
2018-Jun-18 18:28N 47°34' W 122°21'0 0.0
2018-Jun-18 17:58N 47°34' W 122°21'0 0.0
2018-Jun-18 17:31N 47°34' W 122°21'0 0.0
2018-Jun-18 16:58N 47°34' W 122°21'0 0.0
2018-Jun-18 16:25N 47°34' W 122°21'0 0.0
2018-Jun-18 15:57N 47°34' W 122°21'0 0.0
2018-Jun-18 15:28N 47°34' W 122°21'0 0.0
2018-Jun-18 15:01N 47°34' W 122°21'0 0.0
2018-Jun-18 14:31N 47°34' W 122°21'0 0.0
2018-Jun-18 13:57N 47°34' W 122°21'0 0.0
2018-Jun-18 13:28N 47°34' W 122°21'0 0.0
2018-Jun-18 13:00N 47°34' W 122°21'0 0.0
2018-Jun-18 12:30N 47°34' W 122°21'0 0.0
2018-Jun-18 12:00N 47°34' W 122°21'0 0.0
2018-Jun-18 11:30N 47°34' W 122°21'0 0.0
2018-Jun-18 11:01N 47°34' W 122°21'0 0.0
2018-Jun-18 10:31N 47°34' W 122°21'0 0.0
2018-Jun-18 10:00N 47°34' W 122°21'0 0.0
2018-Jun-18 09:31N 47°34' W 122°21'0 0.0
2018-Jun-18 09:01N 47°34' W 122°21'0 0.0
2018-Jun-18 08:30N 47°34' W 122°21'0 0.0
2018-Jun-18 08:00N 47°34' W 122°21'0 0.0
2018-Jun-18 07:30N 47°34' W 122°21'0 0.0
2018-Jun-18 07:00N 47°34' W 122°21'0 0.0
2018-Jun-18 06:31N 47°34' W 122°21'0 0.0
2018-Jun-18 06:00N 47°34' W 122°21'0 0.0
2018-Jun-18 05:30N 47°34' W 122°21'0 0.0
2018-Jun-18 05:00N 47°34' W 122°21'0 0.0
2018-Jun-18 04:30N 47°34' W 122°21'0 0.0
2018-Jun-18 04:00N 47°34' W 122°21'0 0.0
2018-Jun-18 03:30N 47°34' W 122°21'0 0.0
2018-Jun-18 02:57N 47°34' W 122°21'0 0.0
2018-Jun-18 02:30N 47°34' W 122°21'0 0.0
2018-Jun-18 02:00N 47°34' W 122°21'0 0.0
2018-Jun-18 01:30N 47°34' W 122°21'0 0.0
2018-Jun-18 01:00N 47°34' W 122°21'0 0.0
2018-Jun-18 00:31N 47°34' W 122°21'0 0.0
2018-Jun-18 00:00N 47°34' W 122°21'0 0.1
2018-Jun-17 23:30N 47°34' W 122°21'0 0.0
2018-Jun-17 23:00N 47°34' W 122°21'0 0.0
2018-Jun-17 22:30N 47°34' W 122°21'0 0.0
2018-Jun-17 22:00N 47°34' W 122°21'0 0.0
2018-Jun-17 21:30N 47°34' W 122°21'0 0.0
2018-Jun-17 21:00N 47°34' W 122°21'0 0.0
2018-Jun-17 20:30N 47°34' W 122°21'0 0.0
2018-Jun-17 20:00N 47°34' W 122°21'0 0.0
2018-Jun-17 19:30N 47°34' W 122°21'0 0.0
2018-Jun-17 19:00N 47°34' W 122°21'0 0.0
2018-Jun-17 18:27N 47°34' W 122°21'0 0.0
2018-Jun-17 18:00N 47°34' W 122°21'0 0.0
2018-Jun-17 17:30N 47°34' W 122°21'0 0.0
2018-Jun-17 17:00N 47°34' W 122°21'0 0.0
2018-Jun-17 16:30N 47°34' W 122°21'0 0.0
2018-Jun-17 16:00N 47°34' W 122°21'0 0.0
2018-Jun-17 15:27N 47°34' W 122°21'0 0.0
2018-Jun-17 15:00N 47°34' W 122°21'0 0.0
2018-Jun-17 14:30N 47°34' W 122°21'0 0.0
2018-Jun-17 14:00N 47°34' W 122°21'0 0.0
2018-Jun-17 13:30N 47°34' W 122°21'0 0.0
2018-Jun-17 13:00N 47°34' W 122°21'0 0.0
2018-Jun-17 12:30N 47°34' W 122°21'0 0.0
2018-Jun-17 12:00N 47°34' W 122°21'0 0.0
2018-Jun-17 11:30N 47°34' W 122°21'0 0.0
2018-Jun-17 11:00N 47°34' W 122°21'0 0.0
2018-Jun-17 10:30N 47°34' W 122°21'0 0.0
2018-Jun-17 10:00N 47°34' W 122°21'0 0.0
2018-Jun-17 09:30N 47°34' W 122°21'0 0.0
2018-Jun-17 09:00N 47°34' W 122°21'0 0.0
2018-Jun-17 08:30N 47°34' W 122°21'0 0.0
2018-Jun-17 08:00N 47°34' W 122°21'0 0.0
2018-Jun-17 07:30N 47°34' W 122°21'0 0.0
2018-Jun-17 07:00N 47°34' W 122°21'0 0.0
2018-Jun-17 06:30N 47°34' W 122°21'0 0.0
2018-Jun-17 06:00N 47°34' W 122°21'0 0.0
2018-Jun-17 05:30N 47°34' W 122°21'0 0.0
2018-Jun-17 05:00N 47°34' W 122°21'0 0.0
2018-Jun-17 04:30N 47°34' W 122°21'0 0.0
2018-Jun-17 04:00N 47°34' W 122°21'0 0.0
2018-Jun-17 03:24N 47°34' W 122°21'0 0.0
2018-Jun-17 03:00N 47°34' W 122°21'0 0.0
2018-Jun-17 02:30N 47°34' W 122°21'0 0.0
2018-Jun-17 02:00N 47°34' W 122°21'0 0.0
2018-Jun-17 01:30N 47°34' W 122°21'0 0.0
2018-Jun-17 01:00N 47°34' W 122°21'0 0.0
2018-Jun-17 00:30N 47°34' W 122°21'0 0.0
2018-Jun-16 23:57N 47°34' W 122°21'0 0.4
2018-Jun-16 23:30N 47°35' W 122°21'0 0.5
2018-Jun-16 22:59N 47°35' W 122°21'0 0.1
2018-Jun-16 22:29N 47°35' W 122°21'0 0.0
2018-Jun-16 21:59N 47°35' W 122°21'0 0.0
2018-Jun-16 21:29N 47°35' W 122°21'0 0.0
2018-Jun-16 20:59N 47°35' W 122°21'0 0.0
2018-Jun-16 20:29N 47°35' W 122°21'0 0.0
2018-Jun-16 19:59N 47°35' W 122°21'0 0.0
2018-Jun-16 19:17N 47°35' W 122°21'0 0.0
2018-Jun-16 18:59N 47°35' W 122°21'0 0.9
2018-Jun-16 18:28N 47°35' W 122°21'0 0.9
2018-Jun-16 17:59N 47°36' W 122°21'3 5.6
2018-Jun-16 17:30N 47°37' W 122°24'3 6.7
2018-Jun-16 17:01N 47°40' W 122°27'4 7.2
2018-Jun-16 16:30N 47°44' W 122°25'3 6.7
2018-Jun-16 16:00N 47°47' W 122°24'0 0.1
2018-Jun-16 15:29N 47°47' W 122°24'0 0.1
2018-Jun-16 14:59N 47°47' W 122°24'0 0.0
2018-Jun-16 14:29N 47°47' W 122°24'0 0.0
2018-Jun-16 13:56N 47°47' W 122°24'0 0.0
2018-Jun-16 13:29N 47°47' W 122°24'0 0.0
2018-Jun-16 12:59N 47°47' W 122°24'0 0.1
2018-Jun-16 12:29N 47°47' W 122°24'0 0.0
2018-Jun-16 11:59N 47°47' W 122°24'0 0.0
2018-Jun-16 11:29N 47°47' W 122°24'0 0.0
2018-Jun-16 10:59N 47°47' W 122°24'0 0.0
2018-Jun-16 10:29N 47°47' W 122°24'0 0.0
2018-Jun-16 09:59N 47°47' W 122°24'0 0.0
2018-Jun-16 09:29N 47°47' W 122°24'0 0.0
2018-Jun-16 08:59N 47°47' W 122°24'0 0.0
2018-Jun-16 08:29N 47°47' W 122°24'0 0.2
2018-Jun-16 07:59N 47°47' W 122°24'0 0.0
2018-Jun-16 07:30N 47°47' W 122°24'0 0.0
2018-Jun-16 07:00N 47°47' W 122°24'0 0.0
2018-Jun-16 06:30N 47°47' W 122°24'0 0.0
2018-Jun-16 06:00N 47°47' W 122°24'0 0.0
2018-Jun-16 05:30N 47°47' W 122°24'0 0.0
2018-Jun-16 05:00N 47°47' W 122°24'0 0.0
2018-Jun-16 04:30N 47°47' W 122°24'0 0.0
2018-Jun-16 04:00N 47°47' W 122°24'0 0.0
2018-Jun-16 03:30N 47°47' W 122°24'0 0.0
2018-Jun-16 03:00N 47°47' W 122°24'0 0.0
2018-Jun-16 02:30N 47°47' W 122°24'0 0.8
2018-Jun-16 02:00N 47°47' W 122°24'3 6.5
2018-Jun-16 01:30N 47°43' W 122°26'3 6.8
2018-Jun-16 01:00N 47°40' W 122°27'4 6.9
2018-Jun-16 00:30N 47°37' W 122°24'3 5.5
2018-Jun-16 00:00N 47°35' W 122°21'0 0.3
2018-Jun-15 23:29N 47°35' W 122°21'0 0.3
2018-Jun-15 23:00N 47°35' W 122°21'1 0.7
2018-Jun-15 21:54N 47°34' W 122°21'0 0.0
2018-Jun-15 21:30N 47°34' W 122°21'0 0.0
2018-Jun-15 21:00N 47°34' W 122°21'0 0.0
2018-Jun-15 20:30N 47°34' W 122°21'0 0.0
2018-Jun-15 20:00N 47°34' W 122°21'0 0.0
2018-Jun-15 19:30N 47°34' W 122°21'1 1.7
2018-Jun-15 18:58N 47°35' W 122°21'0 0.0
2018-Jun-15 18:30N 47°35' W 122°21'1 1.7
2018-Jun-15 17:58N 47°34' W 122°21'0 0.0
2018-Jun-15 17:25N 47°34' W 122°21'0 0.0
2018-Jun-15 16:58N 47°34' W 122°21'0 0.0
2018-Jun-15 16:28N 47°34' W 122°21'0 0.0
2018-Jun-15 15:58N 47°34' W 122°21'1 2.0
2018-Jun-15 15:30N 47°35' W 122°21'0 0.0
2018-Jun-15 15:00N 47°35' W 122°21'1 1.0
2018-Jun-15 14:30N 47°36' W 122°21'1 2.7
2018-Jun-15 14:00N 47°36' W 122°23'3 6.8
2018-Jun-15 13:30N 47°38' W 122°27'3 6.4
2018-Jun-15 13:00N 47°42' W 122°28'3 6.9
2018-Jun-15 12:30N 47°45' W 122°27'3 6.8
2018-Jun-15 12:00N 47°48' W 122°28'3 6.7
2018-Jun-15 11:30N 47°52' W 122°29'3 6.9
2018-Jun-15 11:00N 47°55' W 122°30'29 6.7
2018-Jun-15 06:40N 48°22' W 122°46'2 7.8
2018-Jun-15 06:28N 48°24' W 122°45'4 7.8
2018-Jun-15 05:59N 48°27' W 122°44'4 7.8
2018-Jun-15 05:30N 48°31' W 122°42'4 8.1
2018-Jun-15 05:00N 48°32' W 122°36'1 2.7
2018-Jun-15 04:30N 48°31' W 122°34'0 0.2
2018-Jun-15 03:57N 48°30' W 122°34'0 0.0
2018-Jun-15 03:27N 48°30' W 122°34'0 0.0
2018-Jun-15 02:57N 48°30' W 122°34'0 0.0
2018-Jun-15 02:27N 48°30' W 122°34'0 0.0
2018-Jun-15 01:57N 48°30' W 122°34'0 0.0
2018-Jun-15 01:27N 48°30' W 122°34'0 0.0
2018-Jun-15 00:57N 48°30' W 122°34'0 0.0
2018-Jun-15 00:27N 48°30' W 122°34'0 0.0
2018-Jun-14 23:57N 48°30' W 122°34'0 0.0
2018-Jun-14 23:27N 48°30' W 122°34'0 0.0
2018-Jun-14 22:58N 48°30' W 122°34'0 0.0
2018-Jun-14 22:27N 48°30' W 122°34'0 0.0
2018-Jun-14 21:57N 48°30' W 122°34'0 0.0
2018-Jun-14 21:27N 48°30' W 122°34'0 0.0
2018-Jun-14 20:57N 48°30' W 122°34'0 0.0
2018-Jun-14 20:27N 48°30' W 122°34'0 0.0
2018-Jun-14 19:51N 48°30' W 122°34'0 0.0
2018-Jun-14 19:27N 48°30' W 122°34'0 0.0
2018-Jun-14 18:57N 48°30' W 122°34'0 0.0
2018-Jun-14 18:27N 48°30' W 122°34'0 0.0
2018-Jun-14 17:57N 48°30' W 122°34'0 0.0
2018-Jun-14 17:27N 48°30' W 122°34'0 0.0
2018-Jun-14 16:57N 48°30' W 122°34'0 0.0
2018-Jun-14 16:30N 48°30' W 122°34'1 1.0
2018-Jun-14 16:00N 48°31' W 122°34'2 4.8
2018-Jun-14 15:30N 48°31' W 122°38'2 5.0
2018-Jun-14 15:00N 48°31' W 122°42'2 4.2
2018-Jun-14 14:30N 48°29' W 122°44'3 5.7
2018-Jun-14 13:59N 48°27' W 122°46'3 6.5
2018-Jun-14 13:29N 48°24' W 122°48'3 6.6
2018-Jun-14 13:00N 48°22' W 122°52'4 7.7
2018-Jun-14 12:28N 48°20' W 122°57'3 7.4
2018-Jun-14 12:00N 48°18' W 123°02'4 7.1
2018-Jun-14 11:29N 48°16' W 123°06'4 7.1
2018-Jun-14 10:53N 48°14' W 123°12'3 7.5
2018-Jun-14 10:28N 48°12' W 123°16'4 8.2
2018-Jun-14 10:00N 48°10' W 123°20'4 7.4
2018-Jun-14 09:30N 48°08' W 123°25'1 2.9
2018-Jun-14 09:00N 48°08' W 123°28'0 0.1
2018-Jun-14 08:30N 48°08' W 123°28'0 0.0
2018-Jun-14 07:54N 48°08' W 123°28'0 0.0
2018-Jun-14 07:30N 48°08' W 123°28'0 0.0
2018-Jun-13 14:18N 48°08' W 123°28'0 0.0
2018-Jun-13 13:45N 48°08' W 123°28'0 0.0
2018-Jun-13 13:24N 48°08' W 123°28'0 0.0
2018-Jun-13 13:00N 48°08' W 123°28'0 0.0
2018-Jun-13 12:24N 48°08' W 123°28'0 0.0
2018-Jun-13 11:48N 48°08' W 123°28'0 0.0
2018-Jun-13 11:24N 48°08' W 123°28'0 0.0
2018-Jun-13 11:00N 48°08' W 123°28'0 0.0
2018-Jun-13 10:30N 48°08' W 123°28'0 0.0
2018-Jun-13 10:00N 48°08' W 123°28'0 0.0
2018-Jun-13 09:18N 48°08' W 123°28'0 0.0
2018-Jun-13 09:00N 48°08' W 123°28'0 0.0
2018-Jun-13 08:30N 48°08' W 123°28'0 0.0
2018-Jun-13 08:00N 48°08' W 123°28'0 0.0
2018-Jun-13 07:24N 48°08' W 123°28'0 0.0
2018-Jun-13 07:00N 48°08' W 123°28'0 0.0
2018-Jun-13 06:30N 48°08' W 123°28'0 0.0
2018-Jun-12 13:42N 48°08' W 123°28'0 0.0
2018-Jun-12 13:30N 48°08' W 123°28'0 0.0
2018-Jun-12 12:54N 48°08' W 123°28'0 0.0
2018-Jun-12 12:30N 48°08' W 123°28'0 0.0
2018-Jun-12 12:00N 48°08' W 123°28'0 0.0
2018-Jun-12 11:30N 48°08' W 123°28'0 0.0
2018-Jun-12 11:00N 48°08' W 123°28'0 0.0
2018-Jun-12 09:36N 48°08' W 123°28'0 0.0
2018-Jun-12 09:24N 48°08' W 123°28'  

Dump ship's entire track history